Melrose, WI

10:06 PM CST on December 17, 2014 (GMT -0600)
Black Oak | Change Station
CLOSE
Current Station
Personal Weather Station
Location: Mindoro, WI
Elevation: 781 ft
Nearby Weather Stations

Elev 781 ft 44.06 °N, 91.15 °W | Updated 9 minutes ago

Overcast
Overcast
17.8 °F
Feels Like 18 °F
N
1.6
Wind Variable Wind from West
Gusts 1.6 mph

Today
High -- | Low -- °F
--% Chance of Precip.
Yesterday
High -- | Low -- °F
Precip. -- in
7:33 AM 4:26 PM
Waning Crescent, 17% visible
Pressure 30.30 in
Visibility 10.0 miles
Clouds Overcast 2200 ft
Windchill 18 °F
Dew Point 14 °F
Humidity 86%
Rainfall 0.00 in
Snow Depth Not available.
UV 0 out of 12
Pollen .10 out of 12
Air Quality Not available.
Flu Activity Not available.
METAR KBCK 180355Z AUTO 29004KT 10SM OVC022 M07/M11 A3030 RMK AO2 T10711112

More Conditions Fewer Conditions

Pressure 30.30 in
Visibility 10.0 miles
Clouds Overcast 2200 ft
Windchill 18 °F
Dew Point 14 °F
Humidity 86%
Rainfall 0.00 in
Snow Depth Not available.
UV 0 out of 12
Pollen .10 out of 12
Air Quality Not available.
Flu Activity Not available.
METAR KBCK 180355Z AUTO 29004KT 10SM OVC022 M07/M11 A3030 RMK AO2 T10711112

More Conditions Fewer Conditions

10-Day Weather Forecast

Almanac

Astronomy

Dec. 17, 2014 Rise Set
Actual Time
Civil Twilight
Nautical Twilight
Astronomical Twilight
Moon
Length of Visible Light
Length of Day
Tomorrow will be .
, % of the Moon is Illuminated

Today's Extremes

State Highs State Lows

Community

WunderPhotos

Upload Photos

1,778,879 photos uploaded!

WunderBlogs® & News

Nearby

Air Quality

  Air Quality AQ Index Pollutant
Not available.

Snow Depth

Station Depth Elevation

Earthquake Activity

City Distance Mag. Time & Date
Minimum magnitude displayed is 2.5.

Coastal Water Temperatures

Place Temperature

Nearby Weather Stations